createdAt,value
2023-12-05T00:00:31.016Z,19.7
2023-12-05T00:01:37.313Z,19.8
2023-12-05T00:02:43.418Z,19.8
2023-12-05T00:03:49.482Z,19.8
2023-12-05T00:04:55.655Z,19.8
2023-12-05T00:06:01.806Z,19.8
2023-12-05T00:07:07.678Z,19.8
2023-12-05T00:08:14.107Z,19.8
2023-12-05T00:09:20.020Z,19.8
2023-12-05T00:10:25.926Z,19.8
2023-12-05T00:11:32.436Z,19.8
2023-12-05T00:12:38.472Z,19.8
2023-12-05T00:13:43.703Z,19.8
2023-12-05T00:14:49.453Z,19.8
2023-12-05T00:15:55.798Z,19.8
2023-12-05T00:17:01.762Z,19.8
2023-12-05T00:18:07.738Z,19.8
2023-12-05T00:19:14.017Z,19.8
2023-12-05T00:20:20.272Z,19.8
2023-12-05T00:21:26.078Z,19.8
2023-12-05T00:22:32.516Z,19.8
2023-12-05T00:23:38.699Z,19.8
2023-12-05T00:24:44.784Z,19.8
2023-12-05T00:25:50.859Z,19.8
2023-12-05T00:26:56.873Z,19.8
2023-12-05T00:28:02.106Z,19.8
2023-12-05T00:29:07.992Z,19.8
2023-12-05T00:30:14.353Z,19.8
2023-12-05T00:31:20.332Z,19.8
2023-12-05T00:32:26.569Z,19.8
2023-12-05T00:33:32.540Z,19.8
2023-12-05T00:34:38.712Z,19.8
2023-12-05T00:35:44.820Z,19.8
2023-12-05T00:36:50.926Z,19.8
2023-12-05T00:37:56.807Z,19.8
2023-12-05T00:39:03.148Z,19.8
2023-12-05T00:40:09.028Z,19.8
2023-12-05T00:41:15.514Z,19.8
2023-12-05T00:42:20.377Z,19.8
2023-12-05T00:43:26.637Z,19.8
2023-12-05T00:44:32.797Z,19.8
2023-12-05T00:45:38.622Z,19.8
2023-12-05T00:46:44.912Z,19.8
2023-12-05T00:47:51.030Z,19.8
2023-12-05T00:48:57.184Z,19.8
2023-12-05T00:50:03.199Z,19.8
2023-12-05T00:51:09.192Z,19.8
2023-12-05T00:52:15.491Z,19.8
2023-12-05T00:54:27.828Z,19.8
2023-12-05T00:55:33.845Z,19.8
2023-12-05T00:56:38.792Z,19.8
2023-12-05T00:57:45.218Z,19.8
2023-12-05T00:58:51.013Z,19.8
2023-12-05T00:59:57.120Z,19.8
2023-12-05T01:01:03.249Z,19.8
2023-12-05T01:02:09.550Z,19.8
2023-12-05T01:03:15.605Z,19.8
2023-12-05T01:04:21.750Z,19.8
2023-12-05T01:05:27.968Z,19.8
2023-12-05T01:06:33.812Z,19.8
2023-12-05T01:07:40.158Z,19.8
2023-12-05T01:08:46.340Z,19.8
2023-12-05T01:09:52.450Z,19.8
2023-12-05T01:10:57.509Z,19.8
2023-12-05T01:12:03.391Z,19.8
2023-12-05T01:13:09.506Z,19.8
2023-12-05T01:14:15.965Z,19.8
2023-12-05T01:15:22.025Z,19.8
2023-12-05T01:16:27.916Z,19.8
2023-12-05T01:17:34.253Z,19.8
2023-12-05T01:18:40.399Z,19.9
2023-12-05T01:19:46.230Z,19.9
2023-12-05T01:20:52.626Z,19.8
2023-12-05T01:21:58.745Z,19.8
2023-12-05T01:23:04.688Z,19.9
2023-12-05T01:24:10.920Z,19.9
2023-12-05T01:25:15.849Z,19.9
2023-12-05T01:26:22.192Z,19.9
2023-12-05T01:27:28.304Z,19.9
2023-12-05T01:28:34.106Z,19.9
2023-12-05T01:29:40.587Z,19.9
2023-12-05T01:30:46.651Z,19.9
2023-12-05T01:31:52.762Z,19.9
2023-12-05T01:32:58.785Z,19.9
2023-12-05T01:34:04.692Z,19.9
2023-12-05T01:35:10.814Z,19.9
2023-12-05T01:36:17.272Z,19.8
2023-12-05T01:37:23.036Z,19.9
2023-12-05T01:38:29.424Z,19.9
2023-12-05T01:39:34.406Z,19.9
2023-12-05T01:40:40.709Z,19.9
2023-12-05T01:41:46.699Z,19.9
2023-12-05T01:42:53.004Z,19.9
2023-12-05T01:43:58.712Z,19.9
2023-12-05T01:45:04.859Z,19.9
2023-12-05T01:47:17.385Z,19.9
2023-12-05T01:48:23.321Z,19.9
2023-12-05T01:49:29.483Z,19.9
2023-12-05T01:50:35.721Z,19.8
2023-12-05T01:51:41.807Z,19.9
2023-12-05T01:52:47.910Z,19.8
2023-12-05T01:53:52.769Z,19.8
2023-12-05T01:54:59.068Z,19.8
2023-12-05T01:56:05.218Z,19.9
2023-12-05T01:57:11.331Z,19.9
2023-12-05T01:58:17.543Z,19.9
2023-12-05T01:59:23.614Z,19.8
2023-12-05T02:00:29.591Z,19.8
2023-12-05T02:01:35.565Z,19.8
2023-12-05T02:02:41.971Z,19.9
2023-12-05T02:03:47.869Z,19.9
2023-12-05T02:04:54.141Z,19.9
2023-12-05T02:06:00.356Z,19.9
2023-12-05T02:07:06.456Z,19.9
2023-12-05T02:08:11.253Z,19.9
2023-12-05T02:09:17.752Z,19.9
2023-12-05T02:10:23.735Z,19.9
2023-12-05T02:11:29.845Z,19.9
2023-12-05T02:12:35.987Z,19.9
2023-12-05T02:13:42.099Z,19.9
2023-12-05T02:14:48.098Z,19.9
2023-12-05T02:15:54.392Z,19.9
2023-12-05T02:17:00.296Z,19.9
2023-12-05T02:18:06.500Z,19.9
2023-12-05T02:19:12.700Z,19.9
2023-12-05T02:20:18.723Z,19.8
2023-12-05T02:21:24.947Z,19.9
2023-12-05T02:22:30.051Z,19.9
2023-12-05T02:23:36.182Z,19.9
2023-12-05T02:24:42.157Z,19.9
2023-12-05T02:25:48.251Z,19.9
2023-12-05T02:26:54.531Z,19.9
2023-12-05T02:28:00.538Z,19.9
2023-12-05T02:29:05.724Z,19.9
2023-12-05T02:30:11.749Z,19.9
2023-12-05T02:31:17.712Z,19.9
2023-12-05T02:32:24.026Z,19.9
2023-12-05T02:33:30.221Z,19.9
2023-12-05T02:34:36.009Z,19.9
2023-12-05T02:35:42.490Z,19.9
2023-12-05T02:36:48.252Z,19.9
2023-12-05T02:37:54.457Z,19.9
2023-12-05T02:39:00.793Z,19.9
2023-12-05T02:40:06.865Z,19.9
2023-12-05T02:41:12.919Z,19.9
2023-12-05T02:42:18.811Z,19.9
2023-12-05T02:43:24.138Z,19.9
2023-12-05T02:44:30.307Z,19.8
2023-12-05T02:45:36.547Z,19.9
2023-12-05T02:46:42.293Z,19.9
2023-12-05T02:47:48.633Z,19.9
2023-12-05T02:48:54.674Z,19.9
2023-12-05T02:50:00.943Z,19.9
2023-12-05T02:51:07.023Z,19.9
2023-12-05T02:52:13.250Z,19.9
2023-12-05T02:53:19.180Z,19.9
2023-12-05T02:54:25.438Z,19.9
2023-12-05T02:55:31.220Z,19.9
2023-12-05T02:56:37.747Z,19.9
2023-12-05T02:57:42.676Z,19.9
2023-12-05T02:58:48.589Z,19.9
2023-12-05T02:59:54.852Z,19.9
2023-12-05T03:01:00.854Z,19.9
2023-12-05T03:02:07.220Z,19.9
2023-12-05T03:03:13.157Z,19.9
2023-12-05T03:04:19.439Z,19.9
2023-12-05T03:05:25.337Z,19.9
2023-12-05T03:06:31.685Z,19.9
2023-12-05T03:07:37.816Z,19.9
2023-12-05T03:08:43.913Z,19.9
2023-12-05T03:09:49.713Z,19.9
2023-12-05T03:10:56.041Z,19.9
2023-12-05T03:12:01.307Z,19.9
2023-12-05T03:13:07.347Z,19.9
2023-12-05T03:14:13.277Z,19.9
2023-12-05T03:15:19.446Z,19.9
2023-12-05T03:16:25.657Z,19.9
2023-12-05T03:17:31.826Z,19.9
2023-12-05T03:18:37.838Z,19.8
2023-12-05T03:19:43.935Z,19.8
2023-12-05T03:20:50.123Z,19.8
2023-12-05T03:21:56.301Z,19.8
2023-12-05T03:23:02.371Z,19.8
2023-12-05T03:24:08.183Z,19.8
2023-12-05T03:25:14.585Z,19.9
2023-12-05T03:26:19.434Z,19.8
2023-12-05T03:27:25.915Z,19.8
2023-12-05T03:28:32.004Z,19.8
2023-12-05T03:29:37.972Z,19.8
2023-12-05T03:30:44.015Z,19.8
2023-12-05T03:31:50.287Z,19.8
2023-12-05T03:32:56.117Z,19.8
2023-12-05T03:34:02.235Z,19.8
2023-12-05T03:35:08.609Z,19.8
2023-12-05T03:36:14.456Z,19.8
2023-12-05T03:37:20.576Z,19.8
2023-12-05T03:38:26.994Z,19.8
2023-12-05T03:39:32.804Z,19.8
2023-12-05T03:40:38.036Z,19.8
2023-12-05T03:41:44.366Z,19.8
2023-12-05T03:42:50.188Z,19.8
2023-12-05T03:43:56.273Z,19.7
2023-12-05T03:45:02.712Z,19.7
2023-12-05T03:46:08.690Z,19.7
2023-12-05T03:47:14.784Z,19.7
2023-12-05T03:48:21.052Z,19.7
2023-12-05T03:49:27.131Z,19.6
2023-12-05T03:50:33.236Z,19.6
2023-12-05T03:51:39.179Z,19.6
2023-12-05T03:52:45.180Z,19.6
2023-12-05T03:53:51.638Z,19.6
2023-12-05T03:54:56.746Z,19.6
2023-12-05T03:56:02.835Z,19.6
2023-12-05T03:57:08.954Z,19.6
2023-12-05T03:58:15.130Z,19.6
2023-12-05T03:59:21.157Z,19.6
2023-12-05T04:00:27.118Z,19.6
2023-12-05T04:01:33.461Z,19.6
2023-12-05T04:02:39.552Z,19.5
2023-12-05T04:03:45.557Z,19.6
2023-12-05T04:04:51.626Z,19.5
2023-12-05T04:05:57.825Z,19.6
2023-12-05T04:07:03.962Z,19.5
2023-12-05T04:08:09.987Z,19.5
2023-12-05T04:09:15.187Z,19.5
2023-12-05T04:10:21.311Z,19.6
2023-12-05T04:11:27.148Z,19.6
2023-12-05T04:12:33.301Z,19.6
2023-12-05T04:13:39.408Z,19.6
2023-12-05T04:14:45.791Z,19.6
2023-12-05T04:15:51.924Z,19.6
2023-12-05T04:16:57.843Z,19.6
2023-12-05T04:18:04.152Z,19.6
2023-12-05T04:19:10.266Z,19.6
2023-12-05T04:20:16.226Z,19.6
2023-12-05T04:21:22.209Z,19.6
2023-12-05T04:22:28.557Z,19.6
2023-12-05T04:23:33.446Z,19.6
2023-12-05T04:24:39.692Z,19.6
2023-12-05T04:25:45.948Z,19.6
2023-12-05T04:26:52.051Z,19.6
2023-12-05T04:27:58.118Z,19.6
2023-12-05T04:29:04.192Z,19.6
2023-12-05T04:30:10.349Z,19.6
2023-12-05T04:31:16.503Z,19.6
2023-12-05T04:32:22.587Z,19.6
2023-12-05T04:33:28.478Z,19.6
2023-12-05T04:34:34.567Z,19.6
2023-12-05T04:35:40.924Z,19.6
2023-12-05T04:36:47.061Z,19.6
2023-12-05T04:37:51.918Z,19.6
2023-12-05T04:38:58.034Z,19.6
2023-12-05T04:40:04.144Z,19.6
2023-12-05T04:41:10.431Z,19.5
2023-12-05T04:42:16.677Z,19.5
2023-12-05T04:43:22.486Z,19.5
2023-12-05T04:44:28.868Z,19.5
2023-12-05T04:45:34.873Z,19.5
2023-12-05T04:46:41.128Z,19.5
2023-12-05T04:47:47.238Z,19.5
2023-12-05T04:48:53.388Z,19.5
2023-12-05T04:49:59.334Z,19.5
2023-12-05T04:51:05.473Z,19.5
2023-12-05T04:52:10.419Z,19.5
2023-12-05T04:53:16.523Z,19.5
2023-12-05T04:54:22.642Z,19.5
2023-12-05T04:55:29.054Z,19.5
2023-12-05T04:56:34.872Z,19.5
2023-12-05T04:57:40.977Z,19.5
2023-12-05T04:58:47.251Z,19.5
2023-12-05T04:59:53.369Z,19.5
2023-12-05T05:00:59.406Z,19.5
2023-12-05T05:02:05.554Z,19.5
2023-12-05T05:03:11.844Z,19.5
2023-12-05T05:04:18.002Z,19.5
2023-12-05T05:05:23.787Z,19.5
2023-12-05T05:06:30.162Z,19.5
2023-12-05T05:07:35.342Z,19.5
2023-12-05T05:08:41.135Z,19.5
2023-12-05T05:09:47.255Z,19.5
2023-12-05T05:10:53.380Z,19.5
2023-12-05T05:11:59.581Z,19.5
2023-12-05T05:13:05.599Z,19.5
2023-12-05T05:14:11.714Z,19.5
2023-12-05T05:15:18.115Z,19.5
2023-12-05T05:16:24.205Z,19.5
2023-12-05T05:17:30.371Z,19.5
2023-12-05T05:18:36.338Z,19.5
2023-12-05T05:19:42.654Z,19.5
2023-12-05T05:20:48.736Z,19.6
2023-12-05T05:21:53.692Z,19.6
2023-12-05T05:22:59.645Z,19.6
2023-12-05T05:24:05.755Z,19.5
2023-12-05T05:25:12.059Z,19.5
2023-12-05T05:26:17.985Z,19.6
2023-12-05T05:27:24.138Z,19.5
2023-12-05T05:28:30.472Z,19.5
2023-12-05T05:29:36.685Z,19.5
2023-12-05T05:30:42.776Z,19.5
2023-12-05T05:31:48.846Z,19.5
2023-12-05T05:32:54.662Z,19.5
2023-12-05T05:34:01.097Z,19.5
2023-12-05T05:35:06.897Z,19.5
2023-12-05T05:36:12.386Z,19.5
2023-12-05T05:37:18.317Z,19.5
2023-12-05T05:38:24.489Z,19.5
2023-12-05T05:39:30.349Z,19.5
2023-12-05T05:40:36.790Z,19.5
2023-12-05T05:41:42.683Z,19.5
2023-12-05T05:42:48.961Z,19.5
2023-12-05T05:43:54.813Z,19.5
2023-12-05T05:45:01.254Z,19.5
2023-12-05T05:46:07.225Z,19.5
2023-12-05T05:47:13.317Z,19.5
2023-12-05T05:49:25.629Z,19.5
2023-12-05T05:50:30.689Z,19.5
2023-12-05T05:51:36.629Z,19.4
2023-12-05T05:52:43.059Z,19.5
2023-12-05T05:53:48.863Z,19.4
2023-12-05T05:54:55.299Z,19.4
2023-12-05T05:56:01.402Z,19.4
2023-12-05T05:57:07.633Z,19.4
2023-12-05T05:58:13.453Z,19.4
2023-12-05T05:59:19.659Z,19.4
2023-12-05T06:00:25.892Z,19.4
2023-12-05T06:01:31.969Z,19.4
2023-12-05T06:02:37.766Z,19.4
2023-12-05T06:03:44.192Z,19.4
2023-12-05T06:04:49.018Z,19.4
2023-12-05T06:05:55.473Z,19.4
2023-12-05T06:07:01.632Z,19.5
2023-12-05T06:08:07.353Z,19.5
2023-12-05T06:09:13.692Z,19.4
2023-12-05T06:10:18.602Z,19.5
2023-12-05T06:11:25.066Z,19.5
2023-12-05T06:12:31.158Z,19.5
2023-12-05T06:13:37.254Z,19.5
2023-12-05T06:14:43.462Z,19.5
2023-12-05T06:15:49.382Z,19.5
2023-12-05T06:16:55.617Z,19.5
2023-12-05T06:18:01.793Z,19.5
2023-12-05T06:19:07.871Z,19.5
2023-12-05T06:20:13.870Z,19.5
2023-12-05T06:21:19.904Z,19.5
2023-12-05T06:23:32.168Z,19.5
2023-12-05T06:24:37.376Z,19.5
2023-12-05T06:26:49.752Z,19.5
2023-12-05T06:27:55.742Z,19.5
2023-12-05T06:29:01.831Z,19.5
2023-12-05T06:30:07.931Z,19.5
2023-12-05T06:31:14.046Z,19.5
2023-12-05T06:32:20.103Z,19.5
2023-12-05T06:33:26.335Z,19.5
2023-12-05T06:34:32.120Z,19.5
2023-12-05T06:35:38.553Z,19.5
2023-12-05T06:36:44.652Z,19.5
2023-12-05T06:37:50.765Z,19.5
2023-12-05T06:38:55.920Z,19.5
2023-12-05T06:40:02.108Z,19.5
2023-12-05T06:41:08.228Z,19.5
2023-12-05T06:42:14.032Z,19.5
2023-12-05T06:43:20.360Z,19.5
2023-12-05T06:44:26.342Z,19.5
2023-12-05T06:45:32.495Z,19.5
2023-12-05T06:46:38.656Z,19.5
2023-12-05T06:47:44.507Z,19.4
2023-12-05T06:48:50.965Z,19.4
2023-12-05T06:49:57.003Z,19.4
2023-12-05T06:51:03.183Z,19.4
2023-12-05T06:52:09.094Z,19.4
2023-12-05T06:53:14.301Z,19.4
2023-12-05T06:54:20.559Z,19.4
2023-12-05T06:55:26.482Z,19.4
2023-12-05T06:56:32.712Z,19.4
2023-12-05T06:57:38.840Z,19.4
2023-12-05T06:58:44.757Z,19.4
2023-12-05T06:59:51.191Z,19.4
2023-12-05T07:00:57.081Z,19.4
2023-12-05T07:02:03.083Z,19.4
2023-12-05T07:03:09.121Z,19.5
2023-12-05T07:04:15.234Z,19.5
2023-12-05T07:05:21.608Z,19.5
2023-12-05T07:06:27.722Z,19.5
2023-12-05T07:07:32.922Z,19.5
2023-12-05T07:08:39.027Z,19.5
2023-12-05T07:09:45.157Z,19.5
2023-12-05T07:10:51.229Z,19.5
2023-12-05T07:11:57.433Z,19.5
2023-12-05T07:13:03.161Z,19.5
2023-12-05T07:14:09.497Z,19.5
2023-12-05T07:15:15.730Z,19.5
2023-12-05T07:16:21.839Z,19.5
2023-12-05T07:17:27.902Z,19.6
2023-12-05T07:18:33.900Z,19.6
2023-12-05T07:19:40.198Z,19.6
2023-12-05T07:20:46.005Z,19.6
2023-12-05T07:21:51.486Z,19.6
2023-12-05T07:22:57.520Z,19.6
2023-12-05T07:24:03.626Z,19.6
2023-12-05T07:25:09.755Z,19.6
2023-12-05T07:26:15.670Z,19.6
2023-12-05T07:27:21.705Z,19.6
2023-12-05T07:28:27.889Z,19.6
2023-12-05T07:29:33.884Z,19.6
2023-12-05T07:30:40.132Z,19.6
2023-12-05T07:31:46.217Z,19.6
2023-12-05T07:32:52.428Z,19.6
2023-12-05T07:33:58.410Z,19.6
2023-12-05T07:35:04.676Z,19.6
2023-12-05T07:36:09.719Z,19.6
2023-12-05T07:37:15.808Z,19.6
2023-12-05T07:38:22.069Z,19.6
2023-12-05T07:39:28.307Z,19.6
2023-12-05T07:40:34.281Z,19.6
2023-12-05T07:41:40.680Z,19.6
2023-12-05T07:42:46.594Z,19.6
2023-12-05T07:43:52.684Z,19.6
2023-12-05T07:44:58.784Z,19.6
2023-12-05T07:46:04.864Z,19.6
2023-12-05T07:47:10.839Z,19.6
2023-12-05T07:48:17.144Z,19.6
2023-12-05T07:49:23.350Z,19.5
2023-12-05T07:50:28.165Z,19.5
2023-12-05T07:51:34.526Z,19.5
2023-12-05T07:52:40.539Z,19.5
2023-12-05T07:53:46.427Z,19.5
2023-12-05T07:54:52.840Z,19.5
2023-12-05T07:55:58.994Z,19.5
2023-12-05T07:57:05.103Z,19.5
2023-12-05T07:58:11.010Z,19.5
2023-12-05T07:59:17.431Z,19.5
2023-12-05T08:00:23.238Z,19.5
2023-12-05T08:02:35.530Z,19.5
2023-12-05T08:03:41.684Z,19.5
2023-12-05T08:04:46.584Z,19.5
2023-12-05T08:05:53.004Z,19.5
2023-12-05T08:06:58.998Z,19.5
2023-12-05T08:08:05.228Z,19.6
2023-12-05T08:09:11.429Z,19.6
2023-12-05T08:10:17.462Z,19.6
2023-12-05T08:11:23.730Z,19.6
2023-12-05T08:12:29.648Z,19.6
2023-12-05T08:13:35.680Z,19.6
2023-12-05T08:14:41.701Z,19.6
2023-12-05T08:15:48.062Z,19.6
2023-12-05T08:16:53.846Z,19.6
2023-12-05T08:18:00.266Z,19.6
2023-12-05T08:19:05.371Z,19.6
2023-12-05T08:20:11.504Z,19.6
2023-12-05T08:22:23.683Z,19.6
2023-12-05T08:24:35.969Z,19.6
2023-12-05T08:25:40.984Z,19.6
2023-12-05T08:26:46.083Z,19.6
2023-12-05T08:27:52.138Z,19.6
2023-12-05T08:28:58.390Z,19.6
2023-12-05T08:30:04.419Z,19.6
2023-12-05T08:31:10.662Z,19.6
2023-12-05T08:32:16.897Z,19.6
2023-12-05T08:33:22.944Z,19.6
2023-12-05T08:34:28.839Z,19.6
2023-12-05T08:35:34.827Z,19.6
2023-12-05T08:36:40.244Z,19.6
2023-12-05T08:37:45.418Z,19.6
2023-12-05T08:38:50.648Z,19.6
2023-12-05T08:39:56.650Z,19.6
2023-12-05T08:41:02.739Z,19.6
2023-12-05T08:42:08.795Z,19.6
2023-12-05T08:43:14.901Z,19.6
2023-12-05T08:44:21.137Z,19.6
2023-12-05T08:45:27.174Z,19.5
2023-12-05T08:46:33.340Z,19.5
2023-12-05T08:47:39.452Z,19.5
2023-12-05T08:48:45.543Z,19.5
2023-12-05T08:49:51.720Z,19.5
2023-12-05T08:50:57.789Z,19.5
2023-12-05T08:52:03.599Z,19.5
2023-12-05T08:53:09.015Z,19.5
2023-12-05T08:54:15.001Z,19.5
2023-12-05T08:55:21.377Z,19.5
2023-12-05T08:56:27.405Z,19.5
2023-12-05T08:58:39.568Z,19.5
2023-12-05T08:59:45.609Z,19.5
2023-12-05T09:00:50.544Z,19.5
2023-12-05T09:01:55.677Z,19.5
2023-12-05T09:03:01.933Z,19.5
2023-12-05T09:04:08.183Z,19.6
2023-12-05T09:05:14.297Z,19.6
2023-12-05T09:07:26.372Z,19.6
2023-12-05T09:08:32.561Z,19.6
2023-12-05T09:09:38.854Z,19.6
2023-12-05T09:10:44.590Z,19.6
2023-12-05T09:11:50.992Z,19.6
2023-12-05T09:12:57.096Z,19.6
2023-12-05T09:14:03.204Z,19.7
2023-12-05T09:15:09.303Z,19.7
2023-12-05T09:16:14.520Z,19.7
2023-12-05T09:17:20.290Z,19.7
2023-12-05T09:18:26.607Z,19.7
2023-12-05T09:19:32.916Z,19.7
2023-12-05T09:20:38.986Z,19.6
2023-12-05T09:22:51.136Z,19.7
2023-12-05T09:23:57.264Z,19.6
2023-12-05T09:25:02.312Z,19.6
2023-12-05T09:26:07.379Z,19.6
2023-12-05T09:27:13.624Z,19.6
2023-12-05T09:28:19.789Z,19.6
2023-12-05T09:29:25.911Z,19.6
2023-12-05T09:30:32.092Z,19.6
2023-12-05T09:31:38.125Z,19.6
2023-12-05T09:32:44.218Z,19.6
2023-12-05T09:33:50.219Z,19.6
2023-12-05T09:34:56.445Z,19.6
2023-12-05T09:36:02.518Z,19.5
2023-12-05T09:37:08.615Z,19.5
2023-12-05T09:38:14.665Z,19.5
2023-12-05T09:39:20.893Z,19.5
2023-12-05T09:40:25.925Z,19.5
2023-12-05T09:41:32.173Z,19.5
2023-12-05T09:42:38.245Z,19.5
2023-12-05T09:43:44.346Z,19.5
2023-12-05T09:44:50.496Z,19.5
2023-12-05T09:45:56.646Z,19.5
2023-12-05T09:47:02.720Z,19.5
2023-12-05T09:48:08.558Z,19.5
2023-12-05T09:49:14.833Z,19.5
2023-12-05T09:50:20.744Z,19.5
2023-12-05T09:51:26.181Z,19.5
2023-12-05T09:52:31.997Z,19.5
2023-12-05T09:53:38.365Z,19.6
2023-12-05T09:54:44.553Z,19.6
2023-12-05T09:55:50.677Z,19.6
2023-12-05T09:56:56.915Z,19.6
2023-12-05T09:58:02.858Z,19.6
2023-12-05T09:59:08.918Z,19.6
2023-12-05T10:00:14.800Z,19.6
2023-12-05T10:01:21.314Z,19.6
2023-12-05T10:02:27.282Z,19.6
2023-12-05T10:03:33.386Z,19.6
2023-12-05T10:04:39.549Z,19.6
2023-12-05T10:05:45.458Z,19.6
2023-12-05T10:06:50.787Z,19.6
2023-12-05T10:07:56.992Z,19.7
2023-12-05T10:09:03.064Z,19.7
2023-12-05T10:10:09.039Z,19.7
2023-12-05T10:11:14.961Z,19.7
2023-12-05T10:12:21.450Z,19.7
2023-12-05T10:13:27.469Z,19.7
2023-12-05T10:14:33.652Z,19.7
2023-12-05T10:15:39.734Z,19.7
2023-12-05T10:16:45.822Z,19.7
2023-12-05T10:17:51.659Z,19.7
2023-12-05T10:18:58.062Z,19.7
2023-12-05T10:20:04.203Z,19.6
2023-12-05T10:21:09.330Z,19.6
2023-12-05T10:22:15.175Z,19.6
2023-12-05T10:23:21.370Z,19.6
2023-12-05T10:24:27.642Z,19.6
2023-12-05T10:26:39.858Z,19.6
2023-12-05T10:27:45.973Z,19.6
2023-12-05T10:28:51.920Z,19.6
2023-12-05T10:29:58.046Z,19.6
2023-12-05T10:31:04.251Z,19.6
2023-12-05T10:34:22.610Z,19.6
2023-12-05T10:35:27.622Z,19.5
2023-12-05T10:36:33.623Z,19.6
2023-12-05T10:37:38.887Z,19.5
2023-12-05T10:38:44.866Z,19.5
2023-12-05T10:39:50.978Z,19.6
2023-12-05T10:40:57.109Z,19.6
2023-12-05T10:42:03.213Z,19.6
2023-12-05T10:43:09.321Z,19.6
2023-12-05T10:44:15.417Z,19.6
2023-12-05T10:45:21.675Z,19.6
2023-12-05T10:46:26.667Z,19.6
2023-12-05T10:47:31.974Z,19.6
2023-12-05T10:48:37.929Z,19.6
2023-12-05T10:49:44.230Z,19.6
2023-12-05T10:50:50.205Z,19.6
2023-12-05T10:51:56.269Z,19.6
2023-12-05T10:53:02.384Z,19.6
2023-12-05T10:54:08.503Z,19.6
2023-12-05T10:55:14.617Z,19.6
2023-12-05T10:56:20.801Z,19.7
2023-12-05T10:57:26.827Z,19.7
2023-12-05T10:58:32.960Z,19.7
2023-12-05T10:59:39.066Z,19.7
2023-12-05T11:00:45.174Z,19.7
2023-12-05T11:01:50.305Z,19.7
2023-12-05T11:02:56.436Z,19.7
2023-12-05T11:04:02.576Z,19.7
2023-12-05T11:05:08.658Z,19.7
2023-12-05T11:06:14.761Z,19.8
2023-12-05T11:07:20.870Z,19.7
2023-12-05T11:08:26.995Z,19.7
2023-12-05T11:09:33.106Z,19.7
2023-12-05T11:10:39.253Z,19.7
2023-12-05T11:12:51.452Z,19.7
2023-12-05T11:13:57.557Z,19.7
2023-12-05T11:15:03.687Z,19.7
2023-12-05T11:16:08.804Z,19.7
2023-12-05T11:17:14.918Z,19.7
2023-12-05T11:18:21.051Z,19.7
2023-12-05T11:19:27.128Z,19.7
2023-12-05T11:20:33.269Z,19.6
2023-12-05T11:21:39.378Z,19.6
2023-12-05T11:22:45.497Z,19.6
2023-12-05T11:23:51.619Z,19.6
2023-12-05T11:24:57.724Z,19.6
2023-12-05T11:26:03.838Z,19.6
2023-12-05T11:28:16.070Z,19.6
2023-12-05T11:29:22.192Z,19.6
2023-12-05T11:30:27.307Z,19.6
2023-12-05T11:31:33.449Z,19.6
2023-12-05T11:32:39.530Z,19.6
2023-12-05T11:33:45.647Z,19.6
2023-12-05T11:34:51.769Z,19.6
2023-12-05T11:35:57.871Z,19.6
2023-12-05T11:37:03.983Z,19.6
2023-12-05T11:38:10.110Z,19.6
2023-12-05T11:39:16.214Z,19.6
2023-12-05T11:40:22.345Z,19.6
2023-12-05T11:41:28.504Z,19.6
2023-12-05T11:42:34.555Z,19.6
2023-12-05T11:44:46.777Z,19.6
2023-12-05T11:45:51.910Z,19.7
2023-12-05T11:46:58.048Z,19.7
2023-12-05T11:48:04.127Z,19.7
2023-12-05T11:49:10.256Z,19.7
2023-12-05T11:50:16.364Z,19.7
2023-12-05T11:51:22.557Z,19.7
2023-12-05T11:52:28.589Z,19.7
2023-12-05T11:53:34.724Z,19.7
2023-12-05T11:54:40.820Z,19.8
2023-12-05T11:55:46.932Z,19.8
2023-12-05T11:56:53.040Z,19.8
2023-12-05T11:57:59.200Z,19.7
2023-12-05T11:59:05.398Z,19.7
2023-12-05T12:01:16.507Z,19.7
2023-12-05T12:02:22.631Z,19.7
2023-12-05T12:03:28.742Z,19.6
2023-12-05T12:04:34.901Z,19.6
2023-12-05T12:05:40.979Z,19.6
2023-12-05T12:06:47.084Z,19.5
2023-12-05T12:07:53.213Z,19.5
2023-12-05T12:08:59.369Z,19.4
2023-12-05T12:10:05.448Z,19.4
2023-12-05T12:11:11.570Z,19.4
2023-12-05T12:12:17.762Z,19.4
2023-12-05T12:13:23.797Z,19.3
2023-12-05T12:14:28.898Z,19.3
2023-12-05T12:15:35.298Z,19.3
2023-12-05T12:16:41.152Z,19.3
2023-12-05T12:17:47.263Z,19.3
2023-12-05T12:19:59.477Z,19.4
2023-12-05T12:21:05.812Z,19.5
2023-12-05T12:22:11.830Z,19.5
2023-12-05T12:23:17.912Z,19.6
2023-12-05T12:24:23.958Z,19.6
2023-12-05T12:25:30.121Z,19.7
2023-12-05T12:26:36.152Z,19.8
2023-12-05T12:27:42.461Z,19.9
2023-12-05T12:28:47.407Z,19.9
2023-12-05T12:29:53.566Z,19.9
2023-12-05T12:30:59.636Z,20
2023-12-05T12:32:05.768Z,20
2023-12-05T12:33:11.909Z,20
2023-12-05T12:34:17.989Z,20
2023-12-05T12:35:24.085Z,20
2023-12-05T12:36:30.371Z,20
2023-12-05T12:37:36.502Z,20
2023-12-05T12:38:42.449Z,20
2023-12-05T12:39:48.708Z,20
2023-12-05T12:40:54.693Z,20
2023-12-05T12:42:00.779Z,20
2023-12-05T12:44:12.127Z,20
2023-12-05T12:45:18.149Z,20
2023-12-05T12:46:24.625Z,20
2023-12-05T12:47:30.569Z,20
2023-12-05T12:48:36.641Z,20
2023-12-05T12:49:42.622Z,20
2023-12-05T12:50:48.742Z,20
2023-12-05T12:51:55.005Z,20
2023-12-05T12:53:00.959Z,20
2023-12-05T12:54:07.095Z,20
2023-12-05T12:55:13.167Z,20
2023-12-05T12:56:19.267Z,20
2023-12-05T12:57:24.482Z,20
2023-12-05T12:58:30.691Z,20
2023-12-05T12:59:36.732Z,19.9
2023-12-05T13:00:42.961Z,20
2023-12-05T13:01:48.873Z,19.9
2023-12-05T13:02:55.015Z,19.9
2023-12-05T13:04:01.141Z,19.9
2023-12-05T13:05:07.242Z,19.9
2023-12-05T13:06:13.403Z,19.9
2023-12-05T13:07:19.425Z,19.9
2023-12-05T13:10:37.838Z,19.9
2023-12-05T13:11:42.888Z,19.9
2023-12-05T13:12:48.993Z,19.9
2023-12-05T13:13:55.169Z,19.9
2023-12-05T13:15:01.354Z,19.8
2023-12-05T13:16:07.489Z,19.8
2023-12-05T13:17:13.515Z,19.8
2023-12-05T13:18:19.639Z,19.8
2023-12-05T13:19:25.723Z,19.8
2023-12-05T13:20:31.815Z,19.8
2023-12-05T13:21:37.928Z,19.8
2023-12-05T13:22:44.042Z,19.8
2023-12-05T13:24:56.329Z,19.8
2023-12-05T13:26:01.451Z,19.8
2023-12-05T13:27:07.620Z,19.9
2023-12-05T13:28:12.701Z,19.9
2023-12-05T13:29:18.879Z,19.9
2023-12-05T13:30:24.980Z,19.9
2023-12-05T13:31:31.047Z,19.9
2023-12-05T13:32:36.125Z,19.9
2023-12-05T13:33:42.274Z,19.9
2023-12-05T13:34:48.347Z,19.9
2023-12-05T13:35:54.480Z,19.9
2023-12-05T13:36:59.616Z,19.9
2023-12-05T13:38:04.794Z,19.9
2023-12-05T13:39:10.895Z,19.9
2023-12-05T13:41:23.178Z,19.9
2023-12-05T13:42:29.168Z,19.9
2023-12-05T13:44:41.412Z,19.9
2023-12-05T13:45:47.596Z,19.9
2023-12-05T13:46:53.746Z,19.9
2023-12-05T13:47:59.843Z,19.9
2023-12-05T13:49:05.867Z,19.9
2023-12-05T13:50:11.005Z,19.9
2023-12-05T13:51:16.204Z,19.9
2023-12-05T13:52:22.247Z,19.9
2023-12-05T13:53:28.349Z,19.9
2023-12-05T13:54:34.475Z,19.9
2023-12-05T13:55:40.652Z,19.9
2023-12-05T13:57:52.822Z,19.8
2023-12-05T13:58:59.175Z,19.7
2023-12-05T14:00:05.304Z,19.7
2023-12-05T14:02:17.387Z,19.6
2023-12-05T14:03:22.440Z,19.5
2023-12-05T14:05:33.884Z,19.4
2023-12-05T14:06:39.856Z,19.5
2023-12-05T14:08:52.116Z,19.5
2023-12-05T14:09:58.247Z,19.5
2023-12-05T14:11:04.374Z,19.6
2023-12-05T14:12:10.472Z,19.6
2023-12-05T14:14:22.561Z,19.8
2023-12-05T14:15:28.665Z,19.9
2023-12-05T14:16:34.774Z,20
2023-12-05T14:17:40.886Z,20
2023-12-05T14:18:46.090Z,20
2023-12-05T14:19:52.172Z,20.1
2023-12-05T14:20:58.335Z,20.1
2023-12-05T14:22:04.364Z,20.2
2023-12-05T14:23:10.503Z,20.2
2023-12-05T14:24:16.596Z,20.2
2023-12-05T14:25:22.708Z,20.2
2023-12-05T14:26:28.821Z,20.2
2023-12-05T14:27:34.933Z,20.2
2023-12-05T14:29:47.216Z,20.2
2023-12-05T14:30:53.287Z,20.2
2023-12-05T14:31:59.391Z,20.2
2023-12-05T14:33:04.593Z,20.2
2023-12-05T14:34:10.639Z,20.2
2023-12-05T14:35:16.771Z,20.2
2023-12-05T14:36:22.946Z,20.1
2023-12-05T14:37:28.022Z,20.1
2023-12-05T14:38:33.221Z,20.1
2023-12-05T14:39:39.273Z,20.1
2023-12-05T14:40:45.375Z,20.1
2023-12-05T14:41:51.470Z,20.1
2023-12-05T14:42:57.579Z,20.1
2023-12-05T14:44:03.744Z,20
2023-12-05T14:45:09.800Z,20
2023-12-05T14:46:15.928Z,20
2023-12-05T14:47:22.048Z,20
2023-12-05T14:48:27.174Z,20
2023-12-05T14:49:32.303Z,20
2023-12-05T14:50:38.404Z,20
2023-12-05T14:51:44.543Z,19.9
2023-12-05T14:52:50.637Z,19.9
2023-12-05T14:53:56.808Z,19.9
2023-12-05T14:56:08.983Z,19.9
2023-12-05T14:57:15.126Z,19.9
2023-12-05T14:58:21.233Z,19.9
2023-12-05T14:59:27.402Z,19.8
2023-12-05T15:00:33.451Z,19.8
2023-12-05T15:01:39.565Z,19.8
2023-12-05T15:02:45.662Z,19.8
2023-12-05T15:03:50.806Z,19.8
2023-12-05T15:04:56.913Z,19.8
2023-12-05T15:06:03.028Z,19.8
2023-12-05T15:07:09.170Z,19.8
2023-12-05T15:08:15.344Z,19.8
2023-12-05T15:09:21.368Z,19.8
2023-12-05T15:10:27.836Z,19.8
2023-12-05T15:11:33.930Z,19.8
2023-12-05T15:12:39.846Z,19.8
2023-12-05T15:14:52.238Z,19.8
2023-12-05T15:15:58.538Z,19.8
2023-12-05T15:18:10.430Z,19.8